sensor_id;sensor_type;location;lat;lon;timestamp;pressure;altitude;pressure_sealevel;temperature;humidity
12207;BME280;6166;42.806;23.408;2022-09-17T00:00:18;71585.66;;;-144.35;100.00
12207;BME280;6166;42.806;23.408;2022-09-17T00:02:49;71593.91;;;-144.35;100.00
12207;BME280;6166;42.806;23.408;2022-09-17T00:05:16;71577.38;;;-144.35;100.00
12207;BME280;6166;42.806;23.408;2022-09-17T00:07:43;71569.13;;;-144.35;100.00
12207;BME280;6166;42.806;23.408;2022-09-17T00:10:11;71565.00;;;-144.35;100.00
12207;BME280;6166;42.806;23.408;2022-09-17T00:12:38;71558.81;;;-144.35;100.00
12207;BME280;6166;42.806;23.408;2022-09-17T00:15:06;71560.88;;;-144.35;100.00
12207;BME280;6166;42.806;23.408;2022-09-17T00:17:32;71554.69;;;-144.35;100.00
12207;BME280;6166;42.806;23.408;2022-09-17T00:19:59;71569.13;;;-144.35;100.00
12207;BME280;6166;42.806;23.408;2022-09-17T00:22:26;71581.50;;;-144.35;100.00
12207;BME280;6166;42.806;23.408;2022-09-17T00:24:52;71593.91;;;-144.35;100.00
12207;BME280;6166;42.806;23.408;2022-09-17T00:27:20;71593.91;;;-144.35;100.00
12207;BME280;6166;42.806;23.408;2022-09-17T00:29:47;71589.78;;;-144.35;100.00
12207;BME280;6166;42.806;23.408;2022-09-17T00:32:13;71581.50;;;-144.35;100.00
12207;BME280;6166;42.806;23.408;2022-09-17T00:34:41;71593.91;;;-144.35;100.00
12207;BME280;6166;42.806;23.408;2022-09-17T00:37:08;71577.38;;;-144.35;100.00
12207;BME280;6166;42.806;23.408;2022-09-17T00:39:34;71565.00;;;-144.35;100.00
12207;BME280;6166;42.806;23.408;2022-09-17T00:42:01;71565.00;;;-144.35;100.00
12207;BME280;6166;42.806;23.408;2022-09-17T00:44:40;71565.00;;;-144.35;100.00
12207;BME280;6166;42.806;23.408;2022-09-17T00:47:11;71565.00;;;-144.35;100.00
12207;BME280;6166;42.806;23.408;2022-09-17T00:49:39;71565.00;;;-144.35;100.00
12207;BME280;6166;42.806;23.408;2022-09-17T00:52:09;71562.94;;;-144.35;100.00
12207;BME280;6166;42.806;23.408;2022-09-17T00:54:38;71577.38;;;-144.35;100.00
12207;BME280;6166;42.806;23.408;2022-09-17T00:57:07;71569.13;;;-144.35;100.00
12207;BME280;6166;42.806;23.408;2022-09-17T00:59:42;71575.31;;;-144.35;100.00
12207;BME280;6166;42.806;23.408;2022-09-17T01:02:09;71581.50;;;-144.35;100.00
12207;BME280;6166;42.806;23.408;2022-09-17T01:04:36;71589.78;;;-144.35;100.00
12207;BME280;6166;42.806;23.408;2022-09-17T01:07:06;71577.38;;;-144.35;100.00
12207;BME280;6166;42.806;23.408;2022-09-17T01:09:42;71577.38;;;-144.35;100.00
12207;BME280;6166;42.806;23.408;2022-09-17T01:12:36;71560.88;;;-144.35;100.00
12207;BME280;6166;42.806;23.408;2022-09-17T01:15:19;71548.47;;;-144.35;100.00
12207;BME280;6166;42.806;23.408;2022-09-17T01:18:00;71546.41;;;-144.35;100.00
12207;BME280;6166;42.806;23.408;2022-09-17T01:26:59;71536.09;;;-144.35;100.00
12207;BME280;6166;42.806;23.408;2022-09-17T01:29:47;71531.97;;;-144.35;100.00
12207;BME280;6166;42.806;23.408;2022-09-17T01:32:24;71536.09;;;-144.35;100.00
12207;BME280;6166;42.806;23.408;2022-09-17T01:34:58;71523.72;;;-144.35;100.00
12207;BME280;6166;42.806;23.408;2022-09-17T01:37:30;71498.94;;;-144.35;100.00
12207;BME280;6166;42.806;23.408;2022-09-17T01:40:05;71523.72;;;-144.35;100.00
12207;BME280;6166;42.806;23.408;2022-09-17T01:42:36;71554.69;;;-144.35;100.00
12207;BME280;6166;42.806;23.408;2022-09-17T01:45:09;71542.28;;;-144.35;100.00
12207;BME280;6166;42.806;23.408;2022-09-17T01:47:43;71598.03;;;-144.35;100.00
12207;BME280;6166;42.806;23.408;2022-09-17T01:50:17;71581.50;;;-144.35;100.00
12207;BME280;6166;42.806;23.408;2022-09-17T01:52:46;71569.13;;;-144.35;100.00
12207;BME280;6166;42.806;23.408;2022-09-17T01:55:15;71639.31;;;-144.35;100.00
12207;BME280;6166;42.806;23.408;2022-09-17T01:57:46;71622.81;;;-144.35;100.00
12207;BME280;6166;42.806;23.408;2022-09-17T02:00:16;71622.81;;;-144.35;100.00
12207;BME280;6166;42.806;23.408;2022-09-17T02:02:47;71606.28;;;-144.35;100.00
12207;BME280;6166;42.806;23.408;2022-09-17T02:05:18;71581.50;;;-144.35;100.00
12207;BME280;6166;42.806;23.408;2022-09-17T02:07:48;71598.03;;;-144.35;100.00
12207;BME280;6166;42.806;23.408;2022-09-17T02:10:19;71612.47;;;-144.35;100.00
12207;BME280;6166;42.806;23.408;2022-09-17T02:12:52;71608.34;;;-144.35;100.00
12207;BME280;6166;42.806;23.408;2022-09-17T02:15:23;71616.63;;;-144.35;100.00
12207;BME280;6166;42.806;23.408;2022-09-17T02:17:53;71612.47;;;-144.35;100.00
12207;BME280;6166;42.806;23.408;2022-09-17T02:20:22;71614.56;;;-144.35;100.00
12207;BME280;6166;42.806;23.408;2022-09-17T02:22:51;71618.69;;;-144.35;100.00
12207;BME280;6166;42.806;23.408;2022-09-17T02:25:23;71606.28;;;-144.35;100.00
12207;BME280;6166;42.806;23.408;2022-09-17T02:27:51;71585.66;;;-144.35;100.00
12207;BME280;6166;42.806;23.408;2022-09-17T02:30:22;71575.31;;;-144.35;100.00
12207;BME280;6166;42.806;23.408;2022-09-17T02:32:49;71569.13;;;-144.35;100.00
12207;BME280;6166;42.806;23.408;2022-09-17T02:35:17;71560.88;;;-144.35;100.00
12207;BME280;6166;42.806;23.408;2022-09-17T02:37:43;71560.88;;;-144.35;100.00
12207;BME280;6166;42.806;23.408;2022-09-17T02:40:11;71598.03;;;-144.35;100.00
12207;BME280;6166;42.806;23.408;2022-09-17T02:42:43;71573.25;;;-144.35;100.00
12207;BME280;6166;42.806;23.408;2022-09-17T02:45:18;71577.38;;;-144.35;100.00
12207;BME280;6166;42.806;23.408;2022-09-17T02:47:57;71560.88;;;-144.35;100.00
12207;BME280;6166;42.806;23.408;2022-09-17T02:50:36;71527.84;;;-144.35;100.00
12207;BME280;6166;42.806;23.408;2022-09-17T02:53:10;71503.06;;;-144.35;100.00
12207;BME280;6166;42.806;23.408;2022-09-17T02:55:40;71498.94;;;-144.35;100.00
12207;BME280;6166;42.806;23.408;2022-09-17T02:58:11;71486.53;;;-144.35;100.00
12207;BME280;6166;42.806;23.408;2022-09-17T03:00:41;71467.97;;;-144.35;100.00
12207;BME280;6166;42.806;23.408;2022-09-17T03:03:09;71453.50;;;-144.35;100.00
12207;BME280;6166;42.806;23.408;2022-09-17T03:05:38;71445.25;;;-144.35;100.00
12207;BME280;6166;42.806;23.408;2022-09-17T03:08:07;71457.63;;;-144.35;100.00
12207;BME280;6166;42.806;23.408;2022-09-17T03:10:34;71449.38;;;-144.35;100.00
12207;BME280;6166;42.806;23.408;2022-09-17T03:13:00;71424.59;;;-144.35;100.00
12207;BME280;6166;42.806;23.408;2022-09-17T03:15:27;71408.09;;;-144.35;100.00
12207;BME280;6166;42.806;23.408;2022-09-17T03:17:53;71399.84;;;-144.35;100.00
12207;BME280;6166;42.806;23.408;2022-09-17T03:20:20;71383.31;;;-144.35;100.00
12207;BME280;6166;42.806;23.408;2022-09-17T03:22:48;71368.88;;;-144.35;98.15
12207;BME280;6166;42.806;23.408;2022-09-17T03:25:14;71350.28;;;-144.35;95.58
12207;BME280;6166;42.806;23.408;2022-09-17T03:27:41;71342.03;;;-144.35;94.40
12207;BME280;6166;42.806;23.408;2022-09-17T03:30:07;71313.13;;;-144.35;93.89
12207;BME280;6166;42.806;23.408;2022-09-17T03:32:34;71304.88;;;-144.35;93.68
12207;BME280;6166;42.806;23.408;2022-09-17T03:35:01;71296.63;;;-144.35;92.85
12207;BME280;6166;42.806;23.408;2022-09-17T03:37:27;71284.22;;;-144.35;92.52
12207;BME280;6166;42.806;23.408;2022-09-17T03:39:56;71282.16;;;-144.35;92.55
12207;BME280;6166;42.806;23.408;2022-09-17T03:42:22;71288.34;;;-144.35;92.74
12207;BME280;6166;42.806;23.408;2022-09-17T03:44:49;71280.09;;;-144.35;93.05
12207;BME280;6166;42.806;23.408;2022-09-17T03:47:15;71275.97;;;-144.35;93.17
12207;BME280;6166;42.806;23.408;2022-09-17T03:49:42;71280.09;;;-144.35;92.80
12207;BME280;6166;42.806;23.408;2022-09-17T03:52:08;71271.84;;;-144.35;92.87
12207;BME280;6166;42.806;23.408;2022-09-17T03:54:35;71263.59;;;-144.35;91.56
12207;BME280;6166;42.806;23.408;2022-09-17T03:57:03;71267.72;;;-144.35;91.83
12207;BME280;6166;42.806;23.408;2022-09-17T03:59:30;71284.22;;;-144.35;91.08
12207;BME280;6166;42.806;23.408;2022-09-17T04:01:56;71280.09;;;-144.35;90.03
12207;BME280;6166;42.806;23.408;2022-09-17T04:04:23;71271.84;;;-144.35;89.84
12207;BME280;6166;42.806;23.408;2022-09-17T04:06:52;71259.44;;;-144.35;89.16
12207;BME280;6166;42.806;23.408;2022-09-17T04:09:18;71271.84;;;-144.35;88.71
12207;BME280;6166;42.806;23.408;2022-09-17T04:11:45;71284.22;;;-144.35;88.86
12207;BME280;6166;42.806;23.408;2022-09-17T04:14:13;71313.13;;;-144.35;93.71
12207;BME280;6166;42.806;23.408;2022-09-17T04:16:39;71381.25;;;-144.35;97.30
12207;BME280;6166;42.806;23.408;2022-09-17T04:19:06;71445.25;;;-144.35;100.00
12207;BME280;6166;42.806;23.408;2022-09-17T04:21:32;71451.44;;;-144.35;100.00
12207;BME280;6166;42.806;23.408;2022-09-17T04:23:59;71474.16;;;-144.35;100.00
12207;BME280;6166;42.806;23.408;2022-09-17T04:26:25;71463.84;;;-144.35;100.00
12207;BME280;6166;42.806;23.408;2022-09-17T04:28:52;71519.56;;;-144.35;100.00
12207;BME280;6166;42.806;23.408;2022-09-17T04:31:19;71507.19;;;-144.35;100.00
12207;BME280;6166;42.806;23.408;2022-09-17T04:33:48;71503.06;;;-144.35;100.00
12207;BME280;6166;42.806;23.408;2022-09-17T04:36:15;71501.00;;;-144.35;100.00
12207;BME280;6166;42.806;23.408;2022-09-17T04:38:41;71494.81;;;-144.35;100.00
12207;BME280;6166;42.806;23.408;2022-09-17T04:41:08;71486.53;;;-144.35;100.00
12207;BME280;6166;42.806;23.408;2022-09-17T04:43:34;71498.94;;;-144.35;100.00
12207;BME280;6166;42.806;23.408;2022-09-17T04:46:01;71517.50;;;-144.35;100.00
12207;BME280;6166;42.806;23.408;2022-09-17T04:48:29;71515.44;;;-144.35;100.00
12207;BME280;6166;42.806;23.408;2022-09-17T04:50:55;71519.56;;;-144.35;100.00
12207;BME280;6166;42.806;23.408;2022-09-17T04:53:22;71519.56;;;-144.35;100.00
12207;BME280;6166;42.806;23.408;2022-09-17T04:55:48;71511.31;;;-144.35;100.00
12207;BME280;6166;42.806;23.408;2022-09-17T04:58:15;71513.38;;;-144.35;100.00
12207;BME280;6166;42.806;23.408;2022-09-17T05:00:41;71525.78;;;-144.35;100.00
12207;BME280;6166;42.806;23.408;2022-09-17T05:03:08;71525.78;;;-144.35;100.00
12207;BME280;6166;42.806;23.408;2022-09-17T05:05:36;71527.84;;;-144.35;100.00
12207;BME280;6166;42.806;23.408;2022-09-17T05:08:02;71527.84;;;-144.35;100.00
12207;BME280;6166;42.806;23.408;2022-09-17T05:10:29;71527.84;;;-144.35;100.00
12207;BME280;6166;42.806;23.408;2022-09-17T05:12:55;71507.19;;;-144.35;100.00
12207;BME280;6166;42.806;23.408;2022-09-17T05:15:22;71494.81;;;-144.35;100.00
12207;BME280;6166;42.806;23.408;2022-09-17T05:17:49;71470.03;;;-144.35;100.00
12207;BME280;6166;42.806;23.408;2022-09-17T05:20:16;71465.91;;;-144.35;100.00
12207;BME280;6166;42.806;23.408;2022-09-17T05:22:44;71461.78;;;-144.35;100.00
12207;BME280;6166;42.806;23.408;2022-09-17T05:25:11;71461.78;;;-144.35;100.00
12207;BME280;6166;42.806;23.408;2022-09-17T05:27:38;71449.38;;;-144.35;100.00
12207;BME280;6166;42.806;23.408;2022-09-17T05:30:05;71437.00;;;-144.35;100.00
12207;BME280;6166;42.806;23.408;2022-09-17T05:32:32;71453.50;;;-144.35;100.00
12207;BME280;6166;42.806;23.408;2022-09-17T05:34:58;71457.63;;;-144.35;100.00
12207;BME280;6166;42.806;23.408;2022-09-17T05:37:25;71437.00;;;-144.35;100.00
12207;BME280;6166;42.806;23.408;2022-09-17T05:39:53;71424.59;;;-144.35;100.00
12207;BME280;6166;42.806;23.408;2022-09-17T05:42:19;71437.00;;;-144.35;100.00
12207;BME280;6166;42.806;23.408;2022-09-17T05:44:46;71441.13;;;-144.35;100.00
12207;BME280;6166;42.806;23.408;2022-09-17T05:47:13;71449.38;;;-144.35;100.00
12207;BME280;6166;42.806;23.408;2022-09-17T05:49:39;71463.84;;;-144.35;100.00
12207;BME280;6166;42.806;23.408;2022-09-17T05:52:06;71451.44;;;-144.35;100.00
12207;BME280;6166;42.806;23.408;2022-09-17T05:54:32;71453.50;;;-144.35;100.00
12207;BME280;6166;42.806;23.408;2022-09-17T05:57:00;71432.88;;;-144.35;100.00
12207;BME280;6166;42.806;23.408;2022-09-17T05:59:26;71453.50;;;-144.35;100.00
12207;BME280;6166;42.806;23.408;2022-09-17T06:01:53;71443.19;;;-144.35;100.00
12207;BME280;6166;42.806;23.408;2022-09-17T06:04:19;71437.00;;;-144.35;100.00
12207;BME280;6166;42.806;23.408;2022-09-17T06:06:46;71428.75;;;-144.35;100.00
12207;BME280;6166;42.806;23.408;2022-09-17T06:09:12;71426.66;;;-144.35;100.00
12207;BME280;6166;42.806;23.408;2022-09-17T06:11:39;71437.00;;;-144.35;100.00
12207;BME280;6166;42.806;23.408;2022-09-17T06:14:07;71457.63;;;-144.35;100.00
12207;BME280;6166;42.806;23.408;2022-09-17T06:16:34;71496.88;;;-144.35;100.00
12207;BME280;6166;42.806;23.408;2022-09-17T06:19:00;71494.81;;;-144.35;100.00
12207;BME280;6166;42.806;23.408;2022-09-17T06:21:28;71494.81;;;-144.35;100.00
12207;BME280;6166;42.806;23.408;2022-09-17T06:23:54;71494.81;;;-144.35;100.00
12207;BME280;6166;42.806;23.408;2022-09-17T06:26:21;71492.75;;;-144.35;100.00
12207;BME280;6166;42.806;23.408;2022-09-17T06:28:47;71482.41;;;-144.35;100.00
12207;BME280;6166;42.806;23.408;2022-09-17T06:31:15;71486.53;;;-144.35;100.00
12207;BME280;6166;42.806;23.408;2022-09-17T06:33:41;71490.69;;;-144.35;100.00
12207;BME280;6166;42.806;23.408;2022-09-17T06:36:09;71478.28;;;-144.35;100.00
12207;BME280;6166;42.806;23.408;2022-09-17T06:38:36;71494.81;;;-144.35;100.00
12207;BME280;6166;42.806;23.408;2022-09-17T06:41:03;71498.94;;;-144.35;100.00
12207;BME280;6166;42.806;23.408;2022-09-17T06:43:29;71544.34;;;-144.35;100.00
12207;BME280;6166;42.806;23.408;2022-09-17T06:45:57;71519.56;;;-144.35;100.00
12207;BME280;6166;42.806;23.408;2022-09-17T06:48:25;71515.44;;;-144.35;100.00
12207;BME280;6166;42.806;23.408;2022-09-17T06:50:52;71511.31;;;-144.35;100.00
12207;BME280;6166;42.806;23.408;2022-09-17T06:53:19;71507.19;;;-144.35;100.00
12207;BME280;6166;42.806;23.408;2022-09-17T06:55:46;71494.81;;;-144.35;100.00
12207;BME280;6166;42.806;23.408;2022-09-17T06:58:12;71490.69;;;-144.35;100.00
12207;BME280;6166;42.806;23.408;2022-09-17T07:00:39;71498.94;;;-144.35;100.00
12207;BME280;6166;42.806;23.408;2022-09-17T07:03:05;71486.53;;;-144.35;100.00
12207;BME280;6166;42.806;23.408;2022-09-17T07:05:33;71490.69;;;-144.35;100.00
12207;BME280;6166;42.806;23.408;2022-09-17T07:08:00;71482.41;;;-144.35;100.00
12207;BME280;6166;42.806;23.408;2022-09-17T07:10:27;71472.09;;;-144.35;100.00
12207;BME280;6166;42.806;23.408;2022-09-17T07:12:54;71453.50;;;-144.35;100.00
12207;BME280;6166;42.806;23.408;2022-09-17T07:15:20;71439.06;;;-144.35;100.00
12207;BME280;6166;42.806;23.408;2022-09-17T07:17:46;71424.59;;;-144.35;100.00
12207;BME280;6166;42.806;23.408;2022-09-17T07:20:13;71410.16;;;-144.35;100.00
12207;BME280;6166;42.806;23.408;2022-09-17T07:22:41;71387.44;;;-144.35;100.00
12207;BME280;6166;42.806;23.408;2022-09-17T07:25:08;71397.78;;;-144.35;100.00
12207;BME280;6166;42.806;23.408;2022-09-17T07:27:35;71366.81;;;-144.35;100.00
12207;BME280;6166;42.806;23.408;2022-09-17T07:30:01;71354.41;;;-144.35;100.00
12207;BME280;6166;42.806;23.408;2022-09-17T07:32:29;71342.03;;;-144.35;100.00
12207;BME280;6166;42.806;23.408;2022-09-17T07:34:55;71280.09;;;-144.35;100.00
12207;BME280;6166;42.806;23.408;2022-09-17T07:37:22;71203.72;;;-144.35;100.00
12207;BME280;6166;42.806;23.408;2022-09-17T07:39:50;71154.16;;;-144.35;99.17
12207;BME280;6166;42.806;23.408;2022-09-17T07:42:16;71201.66;;;-144.35;87.92
12207;BME280;6166;42.806;23.408;2022-09-17T07:44:43;71222.28;;;-144.35;94.18
12207;BME280;6166;42.806;23.408;2022-09-17T07:47:10;71249.13;;;-144.35;97.12
12207;BME280;6166;42.806;23.408;2022-09-17T07:49:37;71257.38;;;-144.35;91.28
12207;BME280;6166;42.806;23.408;2022-09-17T07:52:03;71259.44;;;-144.35;89.09
12207;BME280;6166;42.806;23.408;2022-09-17T07:54:30;71263.59;;;-144.35;88.72
12207;BME280;6166;42.806;23.408;2022-09-17T07:56:59;71247.06;;;-144.35;93.47
12207;BME280;6166;42.806;23.408;2022-09-17T07:59:25;71259.44;;;-144.35;89.48
12207;BME280;6166;42.806;23.408;2022-09-17T08:01:52;71242.94;;;-144.35;89.62
12207;BME280;6166;42.806;23.408;2022-09-17T08:04:19;71224.34;;;-144.35;90.15
12207;BME280;6166;42.806;23.408;2022-09-17T08:06:46;71195.47;;;-144.35;90.23
12207;BME280;6166;42.806;23.408;2022-09-17T08:09:14;71139.72;;;-144.35;93.06
12207;BME280;6166;42.806;23.408;2022-09-17T08:11:41;71100.50;;;-144.35;87.32
12207;BME280;6166;42.806;23.408;2022-09-17T08:14:11;71065.41;;;-144.35;85.76
12207;BME280;6166;42.806;23.408;2022-09-17T08:16:38;71007.59;;;-144.35;85.26
12207;BME280;6166;42.806;23.408;2022-09-17T08:19:05;70951.88;;;-144.35;83.58
12207;BME280;6166;42.806;23.408;2022-09-17T08:21:35;70929.16;;;-144.35;80.56
12207;BME280;6166;42.806;23.408;2022-09-17T08:24:02;70902.31;;;-144.35;79.55
12207;BME280;6166;42.806;23.408;2022-09-17T08:26:29;70871.38;;;-144.35;79.12
12207;BME280;6166;42.806;23.408;2022-09-17T08:28:56;70887.88;;;-144.35;76.61
12207;BME280;6166;42.806;23.408;2022-09-17T08:31:25;70887.88;;;-144.35;81.39
12207;BME280;6166;42.806;23.408;2022-09-17T08:33:53;70883.75;;;-144.35;77.00
12207;BME280;6166;42.806;23.408;2022-09-17T08:36:19;70916.78;;;-144.35;76.60
12207;BME280;6166;42.806;23.408;2022-09-17T08:38:51;70931.22;;;-144.35;76.79
12207;BME280;6166;42.806;23.408;2022-09-17T08:41:23;70937.41;;;-144.35;74.64
12207;BME280;6166;42.806;23.408;2022-09-17T08:44:05;70962.19;;;-144.35;78.26
12207;BME280;6166;42.806;23.408;2022-09-17T08:46:39;71020.00;;;-144.35;77.65
12207;BME280;6166;42.806;23.408;2022-09-17T08:49:13;71036.50;;;-144.35;81.27
12207;BME280;6166;42.806;23.408;2022-09-17T08:51:48;71011.72;;;-144.35;82.52
12207;BME280;6166;42.806;23.408;2022-09-17T08:54:26;71015.84;;;-144.35;78.79
12207;BME280;6166;42.806;23.408;2022-09-17T08:57:06;71040.63;;;-144.35;80.25
12207;BME280;6166;42.806;23.408;2022-09-17T08:59:42;71020.00;;;-144.35;81.65
12207;BME280;6166;42.806;23.408;2022-09-17T09:02:22;71034.44;;;-144.35;83.44
12207;BME280;6166;42.806;23.408;2022-09-17T09:04:56;71073.66;;;-144.35;84.87
12207;BME280;6166;42.806;23.408;2022-09-17T09:07:26;71079.84;;;-144.35;84.16
12207;BME280;6166;42.806;23.408;2022-09-17T09:10:05;71046.81;;;-144.35;86.62
12207;BME280;6166;42.806;23.408;2022-09-17T09:12:36;71036.50;;;-144.35;86.24
12207;BME280;6166;42.806;23.408;2022-09-17T09:15:07;71094.31;;;-144.35;87.79
12207;BME280;6166;42.806;23.408;2022-09-17T09:17:44;71102.56;;;-144.35;86.14
12207;BME280;6166;42.806;23.408;2022-09-17T09:20:17;71127.34;;;-144.35;87.69
12207;BME280;6166;42.806;23.408;2022-09-17T09:22:47;71127.34;;;-144.35;89.15
12207;BME280;6166;42.806;23.408;2022-09-17T09:25:21;71145.91;;;-144.35;86.81
12207;BME280;6166;42.806;23.408;2022-09-17T09:30:29;71164.50;;;-144.35;89.66
12207;BME280;6166;42.806;23.408;2022-09-17T09:33:06;71164.50;;;-144.35;88.97
12207;BME280;6166;42.806;23.408;2022-09-17T09:35:38;71193.38;;;-144.35;91.28
12207;BME280;6166;42.806;23.408;2022-09-17T09:38:11;71191.31;;;-144.35;93.81
12207;BME280;6166;42.806;23.408;2022-09-17T09:40:40;71218.16;;;-144.35;97.19
12207;BME280;6166;42.806;23.408;2022-09-17T09:43:13;71205.78;;;-144.35;99.83
12207;BME280;6166;42.806;23.408;2022-09-17T09:45:53;71172.75;;;-144.35;100.00
12207;BME280;6166;42.806;23.408;2022-09-17T09:48:28;71160.34;;;-144.35;100.00
12207;BME280;6166;42.806;23.408;2022-09-17T09:51:08;71181.00;;;-144.35;96.73
12207;BME280;6166;42.806;23.408;2022-09-17T09:53:48;71181.00;;;-144.35;97.09
12207;BME280;6166;42.806;23.408;2022-09-17T09:56:36;71226.41;;;-144.35;100.00
12207;BME280;6166;42.806;23.408;2022-09-17T09:59:10;71245.00;;;-144.35;100.00
12207;BME280;6166;42.806;23.408;2022-09-17T10:01:37;71269.78;;;-144.35;100.00
12207;BME280;6166;42.806;23.408;2022-09-17T10:04:13;71284.22;;;-144.35;100.00
12207;BME280;6166;42.806;23.408;2022-09-17T10:06:40;71251.19;;;-144.35;100.00
12207;BME280;6166;42.806;23.408;2022-09-17T10:09:08;71211.97;;;-144.35;100.00
12207;BME280;6166;42.806;23.408;2022-09-17T10:11:35;71197.53;;;-144.35;100.00
12207;BME280;6166;42.806;23.408;2022-09-17T10:14:12;71183.06;;;-144.35;100.00
12207;BME280;6166;42.806;23.408;2022-09-17T10:16:39;71156.22;;;-144.35;100.00
12207;BME280;6166;42.806;23.408;2022-09-17T10:19:11;71168.63;;;-144.35;100.00
12207;BME280;6166;42.806;23.408;2022-09-17T10:21:39;71181.00;;;-144.35;100.00
12207;BME280;6166;42.806;23.408;2022-09-17T10:24:10;71216.09;;;-144.35;100.00
12207;BME280;6166;42.806;23.408;2022-09-17T10:26:41;71242.94;;;-144.35;100.00
12207;BME280;6166;42.806;23.408;2022-09-17T10:29:10;71242.94;;;-144.35;100.00
12207;BME280;6166;42.806;23.408;2022-09-17T10:31:45;71247.06;;;-144.35;100.00
12207;BME280;6166;42.806;23.408;2022-09-17T10:34:18;71226.41;;;-144.35;100.00
12207;BME280;6166;42.806;23.408;2022-09-17T10:36:46;71222.28;;;-144.35;100.00
12207;BME280;6166;42.806;23.408;2022-09-17T10:39:29;71226.41;;;-144.35;100.00
12207;BME280;6166;42.806;23.408;2022-09-17T10:41:57;71226.41;;;-144.35;100.00
12207;BME280;6166;42.806;23.408;2022-09-17T10:44:25;71224.34;;;-144.35;100.00
12207;BME280;6166;42.806;23.408;2022-09-17T10:46:51;71218.16;;;-144.35;100.00
12207;BME280;6166;42.806;23.408;2022-09-17T10:49:24;71191.31;;;-144.35;100.00
12207;BME280;6166;42.806;23.408;2022-09-17T10:52:02;71178.94;;;-144.35;100.00
12207;BME280;6166;42.806;23.408;2022-09-17T10:54:34;71160.34;;;-144.35;100.00
12207;BME280;6166;42.806;23.408;2022-09-17T10:57:04;71147.97;;;-144.35;100.00
12207;BME280;6166;42.806;23.408;2022-09-17T10:59:38;71143.84;;;-144.35;100.00
12207;BME280;6166;42.806;23.408;2022-09-17T11:02:17;71129.41;;;-144.35;100.00
12207;BME280;6166;42.806;23.408;2022-09-17T11:04:50;71106.69;;;-144.35;100.00
12207;BME280;6166;42.806;23.408;2022-09-17T11:07:24;71090.19;;;-144.35;98.03
12207;BME280;6166;42.806;23.408;2022-09-17T11:09:58;71077.78;;;-144.35;100.00
12207;BME280;6166;42.806;23.408;2022-09-17T11:12:31;71057.16;;;-144.35;99.29
12207;BME280;6166;42.806;23.408;2022-09-17T11:15:05;71040.63;;;-144.35;98.99
12207;BME280;6166;42.806;23.408;2022-09-17T11:17:45;71032.38;;;-144.35;97.07
12207;BME280;6166;42.806;23.408;2022-09-17T11:20:28;71020.00;;;-144.35;97.81
12207;BME280;6166;42.806;23.408;2022-09-17T11:23:02;71003.47;;;-144.35;92.98
12207;BME280;6166;42.806;23.408;2022-09-17T11:25:39;71020.00;;;-144.35;93.13
12207;BME280;6166;42.806;23.408;2022-09-17T11:28:17;71028.25;;;-144.35;92.90
12207;BME280;6166;42.806;23.408;2022-09-17T11:30:52;71024.13;;;-144.35;94.86
12207;BME280;6166;42.806;23.408;2022-09-17T11:33:24;71024.13;;;-144.35;89.18
12207;BME280;6166;42.806;23.408;2022-09-17T11:35:56;70978.69;;;-144.35;85.79
12207;BME280;6166;42.806;23.408;2022-09-17T11:38:26;70958.06;;;-144.35;81.47
12207;BME280;6166;42.806;23.408;2022-09-17T11:40:57;70941.53;;;-144.35;81.31
12207;BME280;6166;42.806;23.408;2022-09-17T11:43:26;70943.59;;;-144.35;79.76
12207;BME280;6166;42.806;23.408;2022-09-17T11:46:00;70918.84;;;-144.35;81.36
12207;BME280;6166;42.806;23.408;2022-09-17T11:48:31;70974.56;;;-144.35;89.48
12207;BME280;6166;42.806;23.408;2022-09-17T11:51:03;70962.19;;;-144.35;92.90
12207;BME280;6166;42.806;23.408;2022-09-17T11:53:33;70941.53;;;-144.35;92.25
12207;BME280;6166;42.806;23.408;2022-09-17T11:56:02;70931.22;;;-144.35;90.87
12207;BME280;6166;42.806;23.408;2022-09-17T11:58:31;70916.78;;;-144.35;90.52
12207;BME280;6166;42.806;23.408;2022-09-17T12:01:01;70929.16;;;-144.35;93.73
12207;BME280;6166;42.806;23.408;2022-09-17T12:03:29;70937.41;;;-144.35;93.49
12207;BME280;6166;42.806;23.408;2022-09-17T12:05:59;70925.03;;;-144.35;92.61
12207;BME280;6166;42.806;23.408;2022-09-17T12:08:31;70958.06;;;-144.35;93.28
12207;BME280;6166;42.806;23.408;2022-09-17T12:11:00;70974.56;;;-144.35;92.18
12207;BME280;6166;42.806;23.408;2022-09-17T12:13:31;70986.97;;;-144.35;89.72
12207;BME280;6166;42.806;23.408;2022-09-17T12:16:07;71017.91;;;-144.35;89.96
12207;BME280;6166;42.806;23.408;2022-09-17T12:18:45;71003.47;;;-144.35;87.83
12207;BME280;6166;42.806;23.408;2022-09-17T12:21:15;71001.41;;;-144.35;85.81
12207;BME280;6166;42.806;23.408;2022-09-17T12:23:46;71024.13;;;-144.35;90.28
12207;BME280;6166;42.806;23.408;2022-09-17T12:26:18;71069.53;;;-144.35;88.07
12207;BME280;6166;42.806;23.408;2022-09-17T12:28:51;71102.56;;;-144.35;89.47
12207;BME280;6166;42.806;23.408;2022-09-17T12:31:19;71106.69;;;-144.35;91.32
12207;BME280;6166;42.806;23.408;2022-09-17T12:33:49;71127.34;;;-144.35;93.64
12207;BME280;6166;42.806;23.408;2022-09-17T12:36:23;71123.19;;;-144.35;92.74
12207;BME280;6166;42.806;23.408;2022-09-17T12:39:00;71100.50;;;-144.35;94.05
12207;BME280;6166;42.806;23.408;2022-09-17T12:41:31;71131.47;;;-144.35;93.27
12207;BME280;6166;42.806;23.408;2022-09-17T12:44:05;71147.97;;;-144.35;93.35
12207;BME280;6166;42.806;23.408;2022-09-17T12:46:42;71154.16;;;-144.35;92.39
12207;BME280;6166;42.806;23.408;2022-09-17T12:49:29;71156.22;;;-144.35;91.78
12207;BME280;6166;42.806;23.408;2022-09-17T12:52:00;71156.22;;;-144.35;91.56
12207;BME280;6166;42.806;23.408;2022-09-17T12:57:14;71160.34;;;-144.35;91.61